sensor_id;sensor_type;location;lat;lon;timestamp;pressure;altitude;pressure_sealevel;temperature;humidity
48824;BME280;34640;53.590;10.054;2024-02-21T00:01:02;101416.63;;;9.73;100.00
48824;BME280;34640;53.590;10.054;2024-02-21T00:03:37;101424.19;;;9.70;100.00
48824;BME280;34640;53.590;10.054;2024-02-21T00:06:11;101415.59;;;9.71;100.00
48824;BME280;34640;53.590;10.054;2024-02-21T00:08:44;101410.53;;;9.61;100.00
48824;BME280;34640;53.590;10.054;2024-02-21T00:11:18;101402.94;;;9.64;100.00
48824;BME280;34640;53.590;10.054;2024-02-21T00:13:51;101410.50;;;9.73;100.00
48824;BME280;34640;53.590;10.054;2024-02-21T00:16:24;101400.25;;;9.63;100.00
48824;BME280;34640;53.590;10.054;2024-02-21T00:18:59;101397.19;;;9.57;100.00
48824;BME280;34640;53.590;10.054;2024-02-21T00:21:32;101406.22;;;9.62;100.00
48824;BME280;34640;53.590;10.054;2024-02-21T00:24:05;101395.38;;;9.67;100.00
48824;BME280;34640;53.590;10.054;2024-02-21T00:26:38;101388.94;;;9.62;100.00
48824;BME280;34640;53.590;10.054;2024-02-21T00:29:11;101381.34;;;9.65;100.00
48824;BME280;34640;53.590;10.054;2024-02-21T00:31:45;101382.03;;;9.63;100.00
48824;BME280;34640;53.590;10.054;2024-02-21T00:34:19;101369.81;;;9.62;100.00
48824;BME280;34640;53.590;10.054;2024-02-21T00:36:52;101373.75;;;9.68;100.00
48824;BME280;34640;53.590;10.054;2024-02-21T00:39:25;101364.38;;;9.70;100.00
48824;BME280;34640;53.590;10.054;2024-02-21T00:41:58;101363.47;;;9.70;100.00
48824;BME280;34640;53.590;10.054;2024-02-21T00:44:31;101358.75;;;9.64;100.00
48824;BME280;34640;53.590;10.054;2024-02-21T00:47:05;101356.72;;;9.60;100.00
48824;BME280;34640;53.590;10.054;2024-02-21T00:49:39;101350.72;;;9.61;100.00
48824;BME280;34640;53.590;10.054;2024-02-21T00:52:13;101356.72;;;9.60;100.00
48824;BME280;34640;53.590;10.054;2024-02-21T00:54:46;101357.59;;;9.72;100.00
48824;BME280;34640;53.590;10.054;2024-02-21T00:57:26;101355.34;;;9.65;100.00
48824;BME280;34640;53.590;10.054;2024-02-21T00:59:59;101346.75;;;9.66;100.00
48824;BME280;34640;53.590;10.054;2024-02-21T01:02:32;101344.63;;;9.61;100.00
48824;BME280;34640;53.590;10.054;2024-02-21T01:05:07;101342.44;;;9.67;100.00
48824;BME280;34640;53.590;10.054;2024-02-21T01:07:40;101343.25;;;9.77;100.00
48824;BME280;34640;53.590;10.054;2024-02-21T01:10:13;101338.94;;;9.66;100.00
48824;BME280;34640;53.590;10.054;2024-02-21T01:12:46;101332.38;;;9.71;100.00
48824;BME280;34640;53.590;10.054;2024-02-21T01:15:19;101330.91;;;9.75;100.00
48824;BME280;34640;53.590;10.054;2024-02-21T01:17:53;101328.84;;;9.83;100.00
48824;BME280;34640;53.590;10.054;2024-02-21T01:20:29;101314.38;;;9.74;100.00
48824;BME280;34640;53.590;10.054;2024-02-21T01:23:02;101317.88;;;9.75;100.00
48824;BME280;34640;53.590;10.054;2024-02-21T01:25:36;101323.66;;;9.83;100.00
48824;BME280;34640;53.590;10.054;2024-02-21T01:28:09;101312.47;;;9.72;100.00
48824;BME280;34640;53.590;10.054;2024-02-21T01:30:42;101319.47;;;9.73;100.00
48824;BME280;34640;53.590;10.054;2024-02-21T01:33:15;101306.47;;;9.85;100.00
48824;BME280;34640;53.590;10.054;2024-02-21T01:35:49;101321.38;;;9.75;100.00
48824;BME280;34640;53.590;10.054;2024-02-21T01:38:24;101315.97;;;9.72;100.00
48824;BME280;34640;53.590;10.054;2024-02-21T01:40:57;101307.72;;;9.78;100.00
48824;BME280;34640;53.590;10.054;2024-02-21T01:43:30;101305.34;;;9.69;100.00
48824;BME280;34640;53.590;10.054;2024-02-21T01:46:03;101287.19;;;9.58;100.00
48824;BME280;34640;53.590;10.054;2024-02-21T01:48:37;101287.78;;;9.42;100.00
48824;BME280;34640;53.590;10.054;2024-02-21T01:51:11;101283.25;;;9.39;100.00
48824;BME280;34640;53.590;10.054;2024-02-21T01:53:46;101281.13;;;9.34;100.00
48824;BME280;34640;53.590;10.054;2024-02-21T01:56:19;101275.56;;;9.29;100.00
48824;BME280;34640;53.590;10.054;2024-02-21T01:58:53;101277.84;;;9.25;100.00
48824;BME280;34640;53.590;10.054;2024-02-21T02:01:29;101276.72;;;9.33;100.00
48824;BME280;34640;53.590;10.054;2024-02-21T02:04:02;101272.66;;;9.25;100.00
48824;BME280;34640;53.590;10.054;2024-02-21T02:06:39;101259.66;;;9.25;100.00
48824;BME280;34640;53.590;10.054;2024-02-21T02:09:12;101252.53;;;9.22;100.00
48824;BME280;34640;53.590;10.054;2024-02-21T02:11:46;101237.31;;;9.15;100.00
48824;BME280;34640;53.590;10.054;2024-02-21T02:14:19;101226.22;;;9.17;100.00
48824;BME280;34640;53.590;10.054;2024-02-21T02:16:53;101230.31;;;9.14;100.00
48824;BME280;34640;53.590;10.054;2024-02-21T02:19:28;101219.81;;;9.12;100.00
48824;BME280;34640;53.590;10.054;2024-02-21T02:22:08;101209.31;;;9.11;100.00
48824;BME280;34640;53.590;10.054;2024-02-21T02:24:43;101191.88;;;9.10;100.00
48824;BME280;34640;53.590;10.054;2024-02-21T02:27:17;101154.06;;;9.13;100.00
48824;BME280;34640;53.590;10.054;2024-02-21T02:29:50;101145.56;;;9.16;100.00
48824;BME280;34640;53.590;10.054;2024-02-21T02:32:24;101124.69;;;9.14;100.00
48824;BME280;34640;53.590;10.054;2024-02-21T02:34:57;101101.97;;;9.12;100.00
48824;BME280;34640;53.590;10.054;2024-02-21T02:37:30;101095.19;;;9.14;100.00
48824;BME280;34640;53.590;10.054;2024-02-21T02:40:06;101091.91;;;9.16;100.00
48824;BME280;34640;53.590;10.054;2024-02-21T02:42:39;101116.41;;;9.20;100.00
48824;BME280;34640;53.590;10.054;2024-02-21T02:45:13;101136.50;;;9.23;100.00
48824;BME280;34640;53.590;10.054;2024-02-21T02:47:46;101166.88;;;9.35;100.00
48824;BME280;34640;53.590;10.054;2024-02-21T02:50:20;101179.59;;;9.44;100.00
48824;BME280;34640;53.590;10.054;2024-02-21T02:52:53;101170.31;;;9.47;100.00
48824;BME280;34640;53.590;10.054;2024-02-21T02:55:33;101170.00;;;9.43;100.00
48824;BME280;34640;53.590;10.054;2024-02-21T02:58:07;101157.38;;;9.36;100.00
48824;BME280;34640;53.590;10.054;2024-02-21T03:00:41;101155.78;;;9.38;100.00
48824;BME280;34640;53.590;10.054;2024-02-21T03:03:33;101152.19;;;9.36;100.00
48824;BME280;34640;53.590;10.054;2024-02-21T03:06:24;101164.69;;;9.41;100.00
48824;BME280;34640;53.590;10.054;2024-02-21T03:08:58;101166.50;;;9.42;100.00
48824;BME280;34640;53.590;10.054;2024-02-21T03:11:36;101171.91;;;9.45;100.00
48824;BME280;34640;53.590;10.054;2024-02-21T03:14:13;101176.09;;;9.55;100.00
48824;BME280;34640;53.590;10.054;2024-02-21T03:16:46;101177.50;;;9.63;100.00
48824;BME280;34640;53.590;10.054;2024-02-21T03:19:19;101177.63;;;9.65;100.00
48824;BME280;34640;53.590;10.054;2024-02-21T03:21:52;101171.41;;;9.63;100.00
48824;BME280;34640;53.590;10.054;2024-02-21T03:24:26;101172.44;;;9.53;100.00
48824;BME280;34640;53.590;10.054;2024-02-21T03:27:06;101170.28;;;9.59;100.00
48824;BME280;34640;53.590;10.054;2024-02-21T03:29:39;101170.13;;;9.69;100.00
48824;BME280;34640;53.590;10.054;2024-02-21T03:32:12;101173.31;;;9.65;100.00
48824;BME280;34640;53.590;10.054;2024-02-21T03:34:47;101173.94;;;9.74;100.00
48824;BME280;34640;53.590;10.054;2024-02-21T03:37:20;101170.22;;;9.71;100.00
48824;BME280;34640;53.590;10.054;2024-02-21T03:39:53;101161.19;;;9.77;100.00
48824;BME280;34640;53.590;10.054;2024-02-21T03:42:28;101158.78;;;9.80;100.00
48824;BME280;34640;53.590;10.054;2024-02-21T03:45:04;101160.91;;;9.86;100.00
48824;BME280;34640;53.590;10.054;2024-02-21T03:47:37;101168.84;;;10.01;100.00
48824;BME280;34640;53.590;10.054;2024-02-21T03:50:11;101157.25;;;10.09;100.00
48824;BME280;34640;53.590;10.054;2024-02-21T03:52:45;101165.16;;;10.10;100.00
48824;BME280;34640;53.590;10.054;2024-02-21T03:55:18;101156.84;;;10.03;100.00
48824;BME280;34640;53.590;10.054;2024-02-21T03:57:52;101166.06;;;9.98;100.00
48824;BME280;34640;53.590;10.054;2024-02-21T04:00:26;101155.41;;;9.95;100.00
48824;BME280;34640;53.590;10.054;2024-02-21T04:02:59;101151.59;;;9.90;100.00
48824;BME280;34640;53.590;10.054;2024-02-21T04:05:33;101155.06;;;9.77;100.00
48824;BME280;34640;53.590;10.054;2024-02-21T04:08:07;101147.94;;;9.74;100.00
48824;BME280;34640;53.590;10.054;2024-02-21T04:10:40;101147.09;;;9.62;100.00
48824;BME280;34640;53.590;10.054;2024-02-21T04:13:15;101153.19;;;9.63;100.00
48824;BME280;34640;53.590;10.054;2024-02-21T04:15:48;101151.19;;;9.59;100.00
48824;BME280;34640;53.590;10.054;2024-02-21T04:18:27;101145.34;;;9.49;100.00
48824;BME280;34640;53.590;10.054;2024-02-21T04:21:00;101143.28;;;9.57;100.00
48824;BME280;34640;53.590;10.054;2024-02-21T04:23:33;101140.34;;;9.53;100.00
48824;BME280;34640;53.590;10.054;2024-02-21T04:26:06;101124.97;;;9.56;100.00
48824;BME280;34640;53.590;10.054;2024-02-21T04:28:40;101127.69;;;9.57;100.00
48824;BME280;34640;53.590;10.054;2024-02-21T04:31:14;101134.13;;;9.50;100.00
48824;BME280;34640;53.590;10.054;2024-02-21T04:33:47;101127.81;;;9.47;100.00
48824;BME280;34640;53.590;10.054;2024-02-21T04:36:20;101121.03;;;9.49;100.00
48824;BME280;34640;53.590;10.054;2024-02-21T04:38:53;101131.31;;;9.47;100.00
48824;BME280;34640;53.590;10.054;2024-02-21T04:41:26;101113.88;;;9.58;100.00
48824;BME280;34640;53.590;10.054;2024-02-21T04:44:00;101135.50;;;9.57;100.00
48824;BME280;34640;53.590;10.054;2024-02-21T04:46:35;101138.03;;;9.69;100.00
48824;BME280;34640;53.590;10.054;2024-02-21T04:49:09;101124.22;;;9.70;100.00
48824;BME280;34640;53.590;10.054;2024-02-21T04:51:42;101132.81;;;9.69;100.00
48824;BME280;34640;53.590;10.054;2024-02-21T04:54:18;101122.81;;;9.62;100.00
48824;BME280;34640;53.590;10.054;2024-02-21T04:56:52;101121.34;;;9.54;100.00
48824;BME280;34640;53.590;10.054;2024-02-21T04:59:28;101116.03;;;9.52;100.00
48824;BME280;34640;53.590;10.054;2024-02-21T05:02:01;101124.75;;;9.53;100.00
48824;BME280;34640;53.590;10.054;2024-02-21T05:04:35;101116.94;;;9.53;100.00
48824;BME280;34640;53.590;10.054;2024-02-21T05:07:10;101116.59;;;9.60;100.00
48824;BME280;34640;53.590;10.054;2024-02-21T05:09:44;101119.88;;;9.57;100.00
48824;BME280;34640;53.590;10.054;2024-02-21T05:12:17;101114.13;;;9.49;100.00
48824;BME280;34640;53.590;10.054;2024-02-21T05:14:55;101116.81;;;9.38;100.00
48824;BME280;34640;53.590;10.054;2024-02-21T05:17:28;101108.72;;;9.46;100.00
48824;BME280;34640;53.590;10.054;2024-02-21T05:20:01;101101.72;;;9.45;100.00
48824;BME280;34640;53.590;10.054;2024-02-21T05:22:35;101095.63;;;9.45;100.00
48824;BME280;34640;53.590;10.054;2024-02-21T05:25:09;101099.81;;;9.43;100.00
48824;BME280;34640;53.590;10.054;2024-02-21T05:27:42;101109.81;;;9.37;100.00
48824;BME280;34640;53.590;10.054;2024-02-21T05:30:18;101111.28;;;9.33;100.00
48824;BME280;34640;53.590;10.054;2024-02-21T05:32:52;101120.41;;;9.40;100.00
48824;BME280;34640;53.590;10.054;2024-02-21T05:35:26;101116.91;;;9.39;100.00
48824;BME280;34640;53.590;10.054;2024-02-21T05:38:00;101098.03;;;9.42;100.00
48824;BME280;34640;53.590;10.054;2024-02-21T05:40:37;101104.22;;;9.44;100.00
48824;BME280;34640;53.590;10.054;2024-02-21T05:43:10;101103.22;;;9.42;100.00
48824;BME280;34640;53.590;10.054;2024-02-21T05:45:45;101106.19;;;9.35;100.00
48824;BME280;34640;53.590;10.054;2024-02-21T05:48:22;101101.31;;;9.39;100.00
48824;BME280;34640;53.590;10.054;2024-02-21T05:50:55;101100.63;;;9.42;100.00
48824;BME280;34640;53.590;10.054;2024-02-21T05:53:29;101106.41;;;9.38;100.00
48824;BME280;34640;53.590;10.054;2024-02-21T05:56:03;101105.59;;;9.39;100.00
48824;BME280;34640;53.590;10.054;2024-02-21T05:58:37;101104.53;;;9.48;100.00
48824;BME280;34640;53.590;10.054;2024-02-21T06:01:14;101100.13;;;9.47;100.00
48824;BME280;34640;53.590;10.054;2024-02-21T06:03:47;101106.34;;;9.49;100.00
48824;BME280;34640;53.590;10.054;2024-02-21T06:06:23;101114.13;;;9.49;100.00
48824;BME280;34640;53.590;10.054;2024-02-21T06:08:57;101122.63;;;9.47;100.00
48824;BME280;34640;53.590;10.054;2024-02-21T06:11:30;101130.53;;;9.48;100.00
48824;BME280;34640;53.590;10.054;2024-02-21T06:14:04;101131.53;;;9.50;100.00
48824;BME280;34640;53.590;10.054;2024-02-21T06:16:39;101129.41;;;9.45;100.00
48824;BME280;34640;53.590;10.054;2024-02-21T06:19:13;101130.44;;;9.47;100.00
48824;BME280;34640;53.590;10.054;2024-02-21T06:21:46;101138.53;;;9.52;100.00
48824;BME280;34640;53.590;10.054;2024-02-21T06:24:19;101137.75;;;9.53;100.00
48824;BME280;34640;53.590;10.054;2024-02-21T06:26:54;101137.53;;;9.49;100.00
48824;BME280;34640;53.590;10.054;2024-02-21T06:29:27;101128.31;;;9.41;100.00
48824;BME280;34640;53.590;10.054;2024-02-21T06:32:04;101123.09;;;9.41;100.00
48824;BME280;34640;53.590;10.054;2024-02-21T06:34:37;101131.63;;;9.52;100.00
48824;BME280;34640;53.590;10.054;2024-02-21T06:37:12;101137.63;;;9.51;100.00
48824;BME280;34640;53.590;10.054;2024-02-21T06:39:45;101132.44;;;9.51;100.00
48824;BME280;34640;53.590;10.054;2024-02-21T06:42:19;101138.53;;;9.52;100.00
48824;BME280;34640;53.590;10.054;2024-02-21T06:44:53;101137.75;;;9.53;100.00
48824;BME280;34640;53.590;10.054;2024-02-21T06:47:29;101121.13;;;9.50;100.00
48824;BME280;34640;53.590;10.054;2024-02-21T06:50:05;101136.19;;;9.55;100.00
48824;BME280;34640;53.590;10.054;2024-02-21T06:52:39;101132.88;;;9.57;100.00
48824;BME280;34640;53.590;10.054;2024-02-21T06:55:13;101133.44;;;9.53;100.00
48824;BME280;34640;53.590;10.054;2024-02-21T06:57:46;101132.44;;;9.51;100.00
48824;BME280;34640;53.590;10.054;2024-02-21T07:00:21;101134.47;;;9.55;100.00
48824;BME280;34640;53.590;10.054;2024-02-21T07:02:57;101127.34;;;9.53;100.00
48824;BME280;34640;53.590;10.054;2024-02-21T07:05:31;101129.72;;;9.49;100.00
48824;BME280;34640;53.590;10.054;2024-02-21T07:08:04;101128.72;;;9.47;100.00
48824;BME280;34640;53.590;10.054;2024-02-21T07:10:38;101128.41;;;9.43;100.00
48824;BME280;34640;53.590;10.054;2024-02-21T07:13:14;101123.53;;;9.47;100.00
48824;BME280;34640;53.590;10.054;2024-02-21T07:15:48;101118.53;;;9.50;100.00
48824;BME280;34640;53.590;10.054;2024-02-21T07:18:23;101125.00;;;9.44;100.00
48824;BME280;34640;53.590;10.054;2024-02-21T07:20:58;101118.19;;;9.33;100.00
48824;BME280;34640;53.590;10.054;2024-02-21T07:23:31;101123.59;;;9.36;100.00
48824;BME280;34640;53.590;10.054;2024-02-21T07:26:04;101129.94;;;9.28;100.00
48824;BME280;34640;53.590;10.054;2024-02-21T07:28:37;101132.41;;;9.26;100.00
48824;BME280;34640;53.590;10.054;2024-02-21T07:31:10;101131.59;;;9.39;100.00
48824;BME280;34640;53.590;10.054;2024-02-21T07:33:45;101138.91;;;9.69;100.00
48824;BME280;34640;53.590;10.054;2024-02-21T07:36:28;101133.94;;;9.72;100.00
48824;BME280;34640;53.590;10.054;2024-02-21T07:39:01;101139.81;;;9.70;100.00
48824;BME280;34640;53.590;10.054;2024-02-21T07:41:35;101144.53;;;9.75;100.00
48824;BME280;34640;53.590;10.054;2024-02-21T07:44:08;101144.28;;;9.84;100.00
48824;BME280;34640;53.590;10.054;2024-02-21T07:46:41;101147.84;;;9.73;100.00
48824;BME280;34640;53.590;10.054;2024-02-21T07:49:16;101145.00;;;9.95;100.00
48824;BME280;34640;53.590;10.054;2024-02-21T07:51:50;101137.69;;;9.89;100.00
48824;BME280;34640;53.590;10.054;2024-02-21T07:54:24;101138.94;;;10.07;100.00
48824;BME280;34640;53.590;10.054;2024-02-21T07:56:57;101131.38;;;9.86;100.00
48824;BME280;34640;53.590;10.054;2024-02-21T07:59:31;101140.56;;;9.80;100.00
48824;BME280;34640;53.590;10.054;2024-02-21T08:02:05;101145.81;;;9.94;100.00
48824;BME280;34640;53.590;10.054;2024-02-21T08:04:41;101145.25;;;9.98;100.00
48824;BME280;34640;53.590;10.054;2024-02-21T08:07:14;101143.97;;;9.79;100.00
48824;BME280;34640;53.590;10.054;2024-02-21T08:09:47;101147.41;;;9.92;100.00
48824;BME280;34640;53.590;10.054;2024-02-21T08:12:20;101134.47;;;9.80;100.00
48824;BME280;34640;53.590;10.054;2024-02-21T08:14:54;101141.84;;;9.99;100.00
48824;BME280;34640;53.590;10.054;2024-02-21T08:17:27;101138.84;;;10.06;100.00
48824;BME280;34640;53.590;10.054;2024-02-21T08:20:03;101136.72;;;10.00;100.00
48824;BME280;34640;53.590;10.054;2024-02-21T08:22:37;101139.44;;;10.02;100.00
48824;BME280;34640;53.590;10.054;2024-02-21T08:25:10;101133.75;;;10.07;100.00
48824;BME280;34640;53.590;10.054;2024-02-21T08:27:45;101131.84;;;10.05;100.00
48824;BME280;34640;53.590;10.054;2024-02-21T08:30:19;101125.34;;;10.11;100.00
48824;BME280;34640;53.590;10.054;2024-02-21T08:32:52;101129.03;;;10.02;100.00
48824;BME280;34640;53.590;10.054;2024-02-21T08:35:27;101123.78;;;9.89;100.00
48824;BME280;34640;53.590;10.054;2024-02-21T08:38:00;101122.81;;;10.00;100.00
48824;BME280;34640;53.590;10.054;2024-02-21T08:40:34;101116.72;;;9.99;100.00
48824;BME280;34640;53.590;10.054;2024-02-21T08:43:08;101121.03;;;10.12;100.00
48824;BME280;34640;53.590;10.054;2024-02-21T08:45:41;101122.84;;;10.13;100.00
48824;BME280;34640;53.590;10.054;2024-02-21T08:48:15;101122.22;;;10.17;100.00
48824;BME280;34640;53.590;10.054;2024-02-21T08:50:49;101119.84;;;10.20;100.00
48824;BME280;34640;53.590;10.054;2024-02-21T08:53:22;101114.03;;;9.98;100.00
48824;BME280;34640;53.590;10.054;2024-02-21T08:55:56;101122.47;;;10.20;100.00
48824;BME280;34640;53.590;10.054;2024-02-21T08:58:29;101121.78;;;10.36;100.00
48824;BME280;34640;53.590;10.054;2024-02-21T09:01:02;101117.91;;;10.43;100.00
48824;BME280;34640;53.590;10.054;2024-02-21T09:03:38;101118.72;;;10.03;100.00
48824;BME280;34640;53.590;10.054;2024-02-21T09:06:16;101121.81;;;10.11;100.00
48824;BME280;34640;53.590;10.054;2024-02-21T09:08:49;101124.53;;;10.13;100.00
48824;BME280;34640;53.590;10.054;2024-02-21T09:11:22;101114.91;;;9.98;100.00
48824;BME280;34640;53.590;10.054;2024-02-21T09:13:56;101105.97;;;9.95;100.00
48824;BME280;34640;53.590;10.054;2024-02-21T09:16:30;101112.22;;;10.10;100.00
48824;BME280;34640;53.590;10.054;2024-02-21T09:19:03;101114.31;;;10.16;100.00
48824;BME280;34640;53.590;10.054;2024-02-21T09:21:38;101110.31;;;10.07;100.00
48824;BME280;34640;53.590;10.054;2024-02-21T09:24:11;101108.69;;;9.96;100.00
48824;BME280;34640;53.590;10.054;2024-02-21T09:26:44;101109.91;;;10.15;100.00
48824;BME280;34640;53.590;10.054;2024-02-21T09:29:18;101096.31;;;10.05;100.00
48824;BME280;34640;53.590;10.054;2024-02-21T09:31:56;101104.78;;;9.90;100.00
48824;BME280;34640;53.590;10.054;2024-02-21T09:34:29;101100.47;;;9.77;100.00
48824;BME280;34640;53.590;10.054;2024-02-21T09:37:04;101089.47;;;9.81;100.00
48824;BME280;34640;53.590;10.054;2024-02-21T09:39:38;101098.22;;;9.70;100.00
48824;BME280;34640;53.590;10.054;2024-02-21T09:42:14;101096.31;;;9.67;100.00
48824;BME280;34640;53.590;10.054;2024-02-21T09:44:53;101090.97;;;9.77;100.00
48824;BME280;34640;53.590;10.054;2024-02-21T09:47:32;101091.22;;;9.69;100.00
48824;BME280;34640;53.590;10.054;2024-02-21T09:50:08;101092.38;;;9.86;100.00
48824;BME280;34640;53.590;10.054;2024-02-21T09:52:44;101087.97;;;9.85;100.00
48824;BME280;34640;53.590;10.054;2024-02-21T09:55:18;101079.84;;;9.93;100.00
48824;BME280;34640;53.590;10.054;2024-02-21T09:57:54;101087.97;;;9.85;100.00
48824;BME280;34640;53.590;10.054;2024-02-21T10:00:28;101081.56;;;9.93;100.00
48824;BME280;34640;53.590;10.054;2024-02-21T10:03:02;101080.75;;;9.80;100.00
48824;BME280;34640;53.590;10.054;2024-02-21T10:05:45;101085.06;;;9.80;100.00
48824;BME280;34640;53.590;10.054;2024-02-21T10:08:21;101087.66;;;9.93;100.00
48824;BME280;34640;53.590;10.054;2024-02-21T10:10:56;101077.47;;;9.96;100.00
48824;BME280;34640;53.590;10.054;2024-02-21T10:13:31;101080.50;;;10.02;100.00
48824;BME280;34640;53.590;10.054;2024-02-21T10:16:05;101072.09;;;10.06;100.00
48824;BME280;34640;53.590;10.054;2024-02-21T10:18:39;101077.56;;;9.85;100.00
48824;BME280;34640;53.590;10.054;2024-02-21T10:21:12;101081.34;;;9.76;100.00
48824;BME280;34640;53.590;10.054;2024-02-21T10:23:48;101080.75;;;9.80;100.00
48824;BME280;34640;53.590;10.054;2024-02-21T10:26:21;101072.94;;;9.80;100.00
48824;BME280;34640;53.590;10.054;2024-02-21T10:28:55;101080.75;;;9.80;100.00
48824;BME280;34640;53.590;10.054;2024-02-21T10:31:29;101079.66;;;9.77;100.00
48824;BME280;34640;53.590;10.054;2024-02-21T10:34:02;101076.75;;;9.86;100.00
48824;BME280;34640;53.590;10.054;2024-02-21T10:36:37;101072.94;;;9.80;100.00
48824;BME280;34640;53.590;10.054;2024-02-21T10:39:11;101064.56;;;9.85;100.00
48824;BME280;34640;53.590;10.054;2024-02-21T10:41:45;101069.16;;;9.89;100.00
48824;BME280;34640;53.590;10.054;2024-02-21T10:44:20;101064.66;;;9.86;100.00
48824;BME280;34640;53.590;10.054;2024-02-21T10:46:55;101061.06;;;9.97;100.00
48824;BME280;34640;53.590;10.054;2024-02-21T10:49:29;101059.69;;;10.02;100.00
48824;BME280;34640;53.590;10.054;2024-02-21T10:52:06;101050.38;;;10.06;100.00
48824;BME280;34640;53.590;10.054;2024-02-21T10:54:50;101052.47;;;10.11;100.00
48824;BME280;34640;53.590;10.054;2024-02-21T10:57:26;101042.34;;;10.16;100.00
48824;BME280;34640;53.590;10.054;2024-02-21T11:00:00;101037.44;;;9.94;100.00
48824;BME280;34640;53.590;10.054;2024-02-21T11:02:35;101039.13;;;9.80;100.00
48824;BME280;34640;53.590;10.054;2024-02-21T11:05:09;101033.34;;;9.85;100.00
48824;BME280;34640;53.590;10.054;2024-02-21T11:07:42;101034.03;;;9.82;100.00
48824;BME280;34640;53.590;10.054;2024-02-21T11:10:24;101035.25;;;9.87;100.00
48824;BME280;34640;53.590;10.054;2024-02-21T11:13:06;101036.75;;;10.10;100.00
48824;BME280;34640;53.590;10.054;2024-02-21T11:15:40;101034.03;;;9.95;100.00
48824;BME280;34640;53.590;10.054;2024-02-21T11:18:23;101034.44;;;9.88;100.00
48824;BME280;34640;53.590;10.054;2024-02-21T11:20:56;101018.94;;;9.76;100.00
48824;BME280;34640;53.590;10.054;2024-02-21T11:23:29;101015.44;;;9.76;100.00
48824;BME280;34640;53.590;10.054;2024-02-21T11:26:07;101016.78;;;9.71;100.00
48824;BME280;34640;53.590;10.054;2024-02-21T11:28:41;101015.22;;;9.86;100.00
48824;BME280;34640;53.590;10.054;2024-02-21T11:31:15;101009.22;;;9.87;100.00
48824;BME280;34640;53.590;10.054;2024-02-21T11:33:51;101011.94;;;9.89;100.00
48824;BME280;34640;53.590;10.054;2024-02-21T11:36:25;101004.13;;;9.89;100.00
48824;BME280;34640;53.590;10.054;2024-02-21T11:39:03;100995.13;;;9.84;100.00
48824;BME280;34640;53.590;10.054;2024-02-21T11:41:38;100994.31;;;9.85;100.00
48824;BME280;34640;53.590;10.054;2024-02-21T11:44:11;100993.13;;;9.93;100.00
48824;BME280;34640;53.590;10.054;2024-02-21T11:46:44;100992.72;;;9.87;100.00
48824;BME280;34640;53.590;10.054;2024-02-21T11:49:18;100984.00;;;9.86;100.00
48824;BME280;34640;53.590;10.054;2024-02-21T11:51:57;100986.59;;;9.73;100.00
48824;BME280;34640;53.590;10.054;2024-02-21T11:54:34;100978.38;;;9.67;100.00
48824;BME280;34640;53.590;10.054;2024-02-21T11:57:08;100972.59;;;9.71;100.00
48824;BME280;34640;53.590;10.054;2024-02-21T11:59:44;100975.00;;;9.81;100.00
48824;BME280;34640;53.590;10.054;2024-02-21T12:02:17;100970.72;;;9.82;100.00
48824;BME280;34640;53.590;10.054;2024-02-21T12:04:51;100964.19;;;9.75;100.00
48824;BME280;34640;53.590;10.054;2024-02-21T12:07:26;100956.09;;;9.70;100.00
48824;BME280;34640;53.590;10.054;2024-02-21T12:10:01;100949.81;;;9.80;100.00
48824;BME280;34640;53.590;10.054;2024-02-21T12:12:36;100949.19;;;9.84;100.00
48824;BME280;34640;53.590;10.054;2024-02-21T12:15:10;100945.22;;;9.76;100.00
48824;BME280;34640;53.590;10.054;2024-02-21T12:17:43;100951.50;;;9.93;100.00
48824;BME280;34640;53.590;10.054;2024-02-21T12:20:16;100949.69;;;9.92;100.00
48824;BME280;34640;53.590;10.054;2024-02-21T12:22:52;100939.72;;;9.98;100.00
48824;BME280;34640;53.590;10.054;2024-02-21T12:25:26;100939.31;;;9.78;100.00
48824;BME280;34640;53.590;10.054;2024-02-21T12:28:03;100947.69;;;9.88;100.00
48824;BME280;34640;53.590;10.054;2024-02-21T12:30:36;100936.59;;;9.77;100.00
48824;BME280;34640;53.590;10.054;2024-02-21T12:33:11;100936.38;;;9.74;100.00
48824;BME280;34640;53.590;10.054;2024-02-21T12:35:45;100938.09;;;9.73;100.00
48824;BME280;34640;53.590;10.054;2024-02-21T12:38:21;100932.69;;;9.70;100.00
48824;BME280;34640;53.590;10.054;2024-02-21T12:40:55;100930.59;;;9.78;100.00
48824;BME280;34640;53.590;10.054;2024-02-21T12:43:30;100930.09;;;9.70;100.00
48824;BME280;34640;53.590;10.054;2024-02-21T12:46:04;100921.09;;;9.65;100.00
48824;BME280;34640;53.590;10.054;2024-02-21T12:48:39;100925.88;;;9.72;100.00
48824;BME280;34640;53.590;10.054;2024-02-21T12:51:14;100918.88;;;9.71;100.00
48824;BME280;34640;53.590;10.054;2024-02-21T12:53:53;100916.19;;;9.70;100.00
48824;BME280;34640;53.590;10.054;2024-02-21T12:56:27;100910.38;;;9.74;100.00
48824;BME280;34640;53.590;10.054;2024-02-21T12:59:01;100910.28;;;9.72;100.00
48824;BME280;34640;53.590;10.054;2024-02-21T13:01:37;100909.69;;;9.63;100.00
48824;BME280;34640;53.590;10.054;2024-02-21T13:04:10;100907.28;;;9.66;100.00
48824;BME280;34640;53.590;10.054;2024-02-21T13:06:44;100908.81;;;9.76;100.00
48824;BME280;34640;53.590;10.054;2024-02-21T13:09:17;100902.66;;;9.75;100.00
48824;BME280;34640;53.590;10.054;2024-02-21T13:11:52;100895.66;;;9.74;100.00
48824;BME280;34640;53.590;10.054;2024-02-21T13:14:29;100897.00;;;9.81;100.00